• Join FlightAware (Why Join?)
  • Login
  • US Flag 
05:13AM EDT


 

Airport Tracker/Info


-or-


 

Live Flight TrackerFlight Track Log ✈ N27XP ✈ 15-Aug-2014 ✈ KSOP - KCLT

Flight Track Log - Related Links

Times and Time Zones

All times are in EDT time to prevent confusion due to time zone crossing. See the N27XP flight status page for this flight to view local times or setup timezone preferences in your user account.

Time Position Orientation Groundspeed Altitude Reporting Facility
EDT Latitude Longitude Course Direction KTS MPH feet Rate Location/Type
09:59AM 35.2122 -79.7731 270° West 270 311 6,000  Level Atlanta Center
09:59AM 35.2117 -79.8164 269° West 268 308 6,000  Level Atlanta Center
10:00AM 35.2000 -79.7097 270° West  Level FlightAware Approximate
10:00AM 35.2108 -79.9131 269° West 268 308 6,000  Level Atlanta Center
10:01AM 35.2000 -79.7761 270° West  Level FlightAware Approximate
10:01AM 35.2097 -80.0097 269° West 269 310 6,000  Level Atlanta Center
10:02AM 35.2000 -79.8424 270° West  Level FlightAware Approximate
10:02AM 35.2044 -80.1014 266° West 267 307 6,000  Level Atlanta Center
10:03AM 35.2000 -79.9088 270° West  Level FlightAware Approximate
10:03AM 35.1678 -80.1922 244° Southwest 269 310 6,000  Level Atlanta Center
10:04AM 35.2000 -79.9751 270° West  Level FlightAware Approximate
10:04AM 35.1306 -80.2700 240° Southwest 268 308 5,100  Level Atlanta Center
10:05AM 35.0992 -80.3425 242° Southwest 241 277 5,000 -60 Descending Atlanta Center
10:06AM 35.0700 -80.4072 241° Southwest 215 247 5,000 -540 Level Atlanta Center
10:07AM 35.0808 -80.4931 279° West 228 262 4,000 -540 Descending Atlanta Center
10:08AM 35.0933 -80.5661 282° West 222 255 4,000  Level Atlanta Center
10:09AM 35.1100 -80.6367 286° West 225 259 4,000  Level Atlanta Center
10:11AM 35.1597 -80.7006 314° West 222 255 4,000  Level Atlanta Center
10:11AM 35.2025 -80.7419 322° Northwest 226 260 4,000  Level Atlanta Center
10:12AM 35.2517 -80.7122 26° Northeast 235 270 4,000  Level Atlanta Center
10:13AM 35.2939 -80.6544 48° Northeast 230 265 4,000  Level Atlanta Center
10:15AM 35.3511 -80.6853 336° Northwest 201 231 4,000  Level Atlanta Center
10:16AM 35.3650 -80.7331 290° West 165 190 4,000 -60 Level Atlanta Center
10:17AM 35.3369 -80.7750 231° Southwest 161 185 3,900 -480 Descending Atlanta Center
10:18AM 35.3047 -80.8194 228° Southwest 163 188 3,100 -300 Descending Atlanta Center
10:19AM 35.2714 -80.8283 192° South 161 185 3,300 420 Climbing Atlanta Center
10:20AM 35.2575 -80.7756 108° East 184 212 4,000 300 Climbing Atlanta Center
10:21AM 35.2750 -80.7239 67° East 177 204 4,000  Level Atlanta Center
10:22AM 35.3092 -80.6767 48° Northeast 171 197 4,000  Level Atlanta Center
10:23AM 35.3414 -80.6322 48° Northeast 174 200 4,000  Level Atlanta Center
10:24AM 35.3769 -80.6333 359° North 170 196 4,000  Level Atlanta Center
10:25AM 35.3494 -80.6242 165° South 167 192 4,000  Level Atlanta Center
10:26AM 35.3611 -80.6669 289° West 161 185 4,000  Level Atlanta Center
10:27AM 35.3461 -80.7286 253° West 165 190 4,000 -180 Level Atlanta Center
10:28AM 35.3208 -80.7958 245° Southwest 193 222 3,600 -660 Descending Atlanta Center
10:29AM 35.2867 -80.8456 230° Southwest 196 226 2,600 -840 Descending Atlanta Center
10:30AM 35.2542 -80.8875 227° Southwest 180 207 2,000 -840 Descending Atlanta Center
10:31AM 35.2303 -80.9242 231° Southwest 130 150 1,000 -1,020 Descending Atlanta Center